sensor_id;sensor_type;location;lat;lon;timestamp;P1;durP1;ratioP1;P2;durP2;ratioP2
49784;SDS011;35679;38.732;-121.358;2022-07-29T00:00:19;11.73;;;3.58;;
49784;SDS011;35679;38.732;-121.358;2022-07-29T00:03:08;8.93;;;3.45;;
49784;SDS011;35679;38.732;-121.358;2022-07-29T00:05:58;8.98;;;3.80;;
49784;SDS011;35679;38.732;-121.358;2022-07-29T00:08:47;18.67;;;3.95;;
49784;SDS011;35679;38.732;-121.358;2022-07-29T00:11:36;12.68;;;3.70;;
49784;SDS011;35679;38.732;-121.358;2022-07-29T00:14:28;16.17;;;3.85;;
49784;SDS011;35679;38.732;-121.358;2022-07-29T00:17:18;10.82;;;3.90;;
49784;SDS011;35679;38.732;-121.358;2022-07-29T00:20:08;9.18;;;3.35;;
49784;SDS011;35679;38.732;-121.358;2022-07-29T00:22:58;20.25;;;4.07;;
49784;SDS011;35679;38.732;-121.358;2022-07-29T00:25:47;12.90;;;3.63;;
49784;SDS011;35679;38.732;-121.358;2022-07-29T00:28:37;14.20;;;3.67;;
49784;SDS011;35679;38.732;-121.358;2022-07-29T00:31:26;19.60;;;3.90;;
49784;SDS011;35679;38.732;-121.358;2022-07-29T00:34:16;14.27;;;4.03;;
49784;SDS011;35679;38.732;-121.358;2022-07-29T00:37:44;11.00;;;3.88;;
49784;SDS011;35679;38.732;-121.358;2022-07-29T00:40:33;11.82;;;4.18;;
49784;SDS011;35679;38.732;-121.358;2022-07-29T00:43:26;8.73;;;3.53;;
49784;SDS011;35679;38.732;-121.358;2022-07-29T00:46:15;11.02;;;3.50;;
49784;SDS011;35679;38.732;-121.358;2022-07-29T00:49:05;10.77;;;3.65;;
49784;SDS011;35679;38.732;-121.358;2022-07-29T00:51:56;9.80;;;3.70;;
49784;SDS011;35679;38.732;-121.358;2022-07-29T00:54:46;7.03;;;3.20;;
49784;SDS011;35679;38.732;-121.358;2022-07-29T00:57:35;12.77;;;4.00;;
49784;SDS011;35679;38.732;-121.358;2022-07-29T01:00:28;8.73;;;3.15;;
49784;SDS011;35679;38.732;-121.358;2022-07-29T01:03:18;5.95;;;2.88;;
49784;SDS011;35679;38.732;-121.358;2022-07-29T01:06:09;4.57;;;2.80;;
49784;SDS011;35679;38.732;-121.358;2022-07-29T01:08:58;6.05;;;2.70;;
49784;SDS011;35679;38.732;-121.358;2022-07-29T01:11:49;8.85;;;2.85;;
49784;SDS011;35679;38.732;-121.358;2022-07-29T01:14:38;5.63;;;2.65;;
49784;SDS011;35679;38.732;-121.358;2022-07-29T01:17:33;8.57;;;2.80;;
49784;SDS011;35679;38.732;-121.358;2022-07-29T01:27:19;14.52;;;2.80;;
49784;SDS011;35679;38.732;-121.358;2022-07-29T01:30:17;11.98;;;3.85;;
49784;SDS011;35679;38.732;-121.358;2022-07-29T01:33:10;16.52;;;4.25;;
49784;SDS011;35679;38.732;-121.358;2022-07-29T01:36:30;8.32;;;3.25;;
49784;SDS011;35679;38.732;-121.358;2022-07-29T01:39:34;9.93;;;3.53;;
49784;SDS011;35679;38.732;-121.358;2022-07-29T01:42:34;5.35;;;2.50;;
49784;SDS011;35679;38.732;-121.358;2022-07-29T01:45:33;7.43;;;2.80;;
49784;SDS011;35679;38.732;-121.358;2022-07-29T01:48:34;5.57;;;2.43;;
49784;SDS011;35679;38.732;-121.358;2022-07-29T01:51:33;6.18;;;2.53;;
49784;SDS011;35679;38.732;-121.358;2022-07-29T01:54:37;6.97;;;2.75;;
49784;SDS011;35679;38.732;-121.358;2022-07-29T01:57:34;5.78;;;2.72;;
49784;SDS011;35679;38.732;-121.358;2022-07-29T02:00:26;5.50;;;2.55;;
49784;SDS011;35679;38.732;-121.358;2022-07-29T02:03:16;5.43;;;2.40;;
49784;SDS011;35679;38.732;-121.358;2022-07-29T02:06:07;7.28;;;2.90;;
49784;SDS011;35679;38.732;-121.358;2022-07-29T02:08:59;3.67;;;2.58;;
49784;SDS011;35679;38.732;-121.358;2022-07-29T02:11:55;9.27;;;2.95;;
49784;SDS011;35679;38.732;-121.358;2022-07-29T02:17:41;7.10;;;2.70;;
49784;SDS011;35679;38.732;-121.358;2022-07-29T02:20:35;6.22;;;2.47;;
49784;SDS011;35679;38.732;-121.358;2022-07-29T02:23:26;3.63;;;2.38;;
49784;SDS011;35679;38.732;-121.358;2022-07-29T02:26:17;4.55;;;2.50;;
49784;SDS011;35679;38.732;-121.358;2022-07-29T02:29:10;5.90;;;2.30;;
49784;SDS011;35679;38.732;-121.358;2022-07-29T02:32:03;3.60;;;2.38;;
49784;SDS011;35679;38.732;-121.358;2022-07-29T02:34:56;4.40;;;2.78;;
49784;SDS011;35679;38.732;-121.358;2022-07-29T02:37:46;5.72;;;2.88;;
49784;SDS011;35679;38.732;-121.358;2022-07-29T02:40:56;4.32;;;2.33;;
49784;SDS011;35679;38.732;-121.358;2022-07-29T02:43:50;7.38;;;2.67;;
49784;SDS011;35679;38.732;-121.358;2022-07-29T02:53:16;4.55;;;2.42;;
49784;SDS011;35679;38.732;-121.358;2022-07-29T02:56:13;6.63;;;2.65;;
49784;SDS011;35679;38.732;-121.358;2022-07-29T02:59:10;4.35;;;2.60;;
49784;SDS011;35679;38.732;-121.358;2022-07-29T03:02:01;4.80;;;2.25;;
49784;SDS011;35679;38.732;-121.358;2022-07-29T03:04:53;4.20;;;2.53;;
49784;SDS011;35679;38.732;-121.358;2022-07-29T03:07:55;4.53;;;2.17;;
49784;SDS011;35679;38.732;-121.358;2022-07-29T03:10:53;2.67;;;2.20;;
49784;SDS011;35679;38.732;-121.358;2022-07-29T03:13:44;2.33;;;2.13;;
49784;SDS011;35679;38.732;-121.358;2022-07-29T03:16:34;5.70;;;2.45;;
49784;SDS011;35679;38.732;-121.358;2022-07-29T03:19:28;3.15;;;1.80;;
49784;SDS011;35679;38.732;-121.358;2022-07-29T03:22:17;2.67;;;2.00;;
49784;SDS011;35679;38.732;-121.358;2022-07-29T03:25:08;2.53;;;1.85;;
49784;SDS011;35679;38.732;-121.358;2022-07-29T03:28:02;3.53;;;2.25;;
49784;SDS011;35679;38.732;-121.358;2022-07-29T03:30:52;1.85;;;1.75;;
49784;SDS011;35679;38.732;-121.358;2022-07-29T03:33:43;4.15;;;2.22;;
49784;SDS011;35679;38.732;-121.358;2022-07-29T03:36:33;3.58;;;2.20;;
49784;SDS011;35679;38.732;-121.358;2022-07-29T03:39:23;2.55;;;2.30;;
49784;SDS011;35679;38.732;-121.358;2022-07-29T03:42:16;2.63;;;2.40;;
49784;SDS011;35679;38.732;-121.358;2022-07-29T03:45:11;2.47;;;2.03;;
49784;SDS011;35679;38.732;-121.358;2022-07-29T03:48:08;2.40;;;2.20;;
49784;SDS011;35679;38.732;-121.358;2022-07-29T03:51:01;2.05;;;1.95;;
49784;SDS011;35679;38.732;-121.358;2022-07-29T03:53:51;2.08;;;1.80;;
49784;SDS011;35679;38.732;-121.358;2022-07-29T03:56:43;3.53;;;1.90;;
49784;SDS011;35679;38.732;-121.358;2022-07-29T03:59:35;2.10;;;1.90;;
49784;SDS011;35679;38.732;-121.358;2022-07-29T04:02:26;6.10;;;2.05;;
49784;SDS011;35679;38.732;-121.358;2022-07-29T04:05:17;2.10;;;2.00;;
49784;SDS011;35679;38.732;-121.358;2022-07-29T04:08:07;4.07;;;1.80;;
49784;SDS011;35679;38.732;-121.358;2022-07-29T04:10:57;4.60;;;1.90;;
49784;SDS011;35679;38.732;-121.358;2022-07-29T04:13:46;4.10;;;2.10;;
49784;SDS011;35679;38.732;-121.358;2022-07-29T04:16:35;3.53;;;2.15;;
49784;SDS011;35679;38.732;-121.358;2022-07-29T04:19:25;3.33;;;1.83;;
49784;SDS011;35679;38.732;-121.358;2022-07-29T04:22:14;2.33;;;1.90;;
49784;SDS011;35679;38.732;-121.358;2022-07-29T04:25:04;2.72;;;2.20;;
49784;SDS011;35679;38.732;-121.358;2022-07-29T04:27:54;2.47;;;2.05;;
49784;SDS011;35679;38.732;-121.358;2022-07-29T04:30:51;2.53;;;2.10;;
49784;SDS011;35679;38.732;-121.358;2022-07-29T04:33:41;3.80;;;2.10;;
49784;SDS011;35679;38.732;-121.358;2022-07-29T04:36:32;3.15;;;2.20;;
49784;SDS011;35679;38.732;-121.358;2022-07-29T04:39:24;2.65;;;2.00;;
49784;SDS011;35679;38.732;-121.358;2022-07-29T04:42:16;2.05;;;1.90;;
49784;SDS011;35679;38.732;-121.358;2022-07-29T04:45:14;2.92;;;2.22;;
49784;SDS011;35679;38.732;-121.358;2022-07-29T04:48:09;2.20;;;2.00;;
49784;SDS011;35679;38.732;-121.358;2022-07-29T04:50:58;3.15;;;2.20;;
49784;SDS011;35679;38.732;-121.358;2022-07-29T04:53:48;2.35;;;2.17;;
49784;SDS011;35679;38.732;-121.358;2022-07-29T04:56:37;6.30;;;2.28;;
49784;SDS011;35679;38.732;-121.358;2022-07-29T04:59:26;2.45;;;2.00;;
49784;SDS011;35679;38.732;-121.358;2022-07-29T05:02:16;3.28;;;2.25;;
49784;SDS011;35679;38.732;-121.358;2022-07-29T05:05:05;3.50;;;2.40;;
49784;SDS011;35679;38.732;-121.358;2022-07-29T05:07:55;3.10;;;1.98;;
49784;SDS011;35679;38.732;-121.358;2022-07-29T05:10:44;2.25;;;2.10;;
49784;SDS011;35679;38.732;-121.358;2022-07-29T05:13:34;3.72;;;2.60;;
49784;SDS011;35679;38.732;-121.358;2022-07-29T05:16:33;2.45;;;2.10;;
49784;SDS011;35679;38.732;-121.358;2022-07-29T05:19:22;2.60;;;1.90;;
49784;SDS011;35679;38.732;-121.358;2022-07-29T05:22:12;2.13;;;2.03;;
49784;SDS011;35679;38.732;-121.358;2022-07-29T05:25:01;2.58;;;2.13;;
49784;SDS011;35679;38.732;-121.358;2022-07-29T05:27:55;5.20;;;2.30;;
49784;SDS011;35679;38.732;-121.358;2022-07-29T05:30:46;2.63;;;2.42;;
49784;SDS011;35679;38.732;-121.358;2022-07-29T05:33:37;2.83;;;2.10;;
49784;SDS011;35679;38.732;-121.358;2022-07-29T05:36:26;3.03;;;2.15;;
49784;SDS011;35679;38.732;-121.358;2022-07-29T05:39:16;2.22;;;2.03;;
49784;SDS011;35679;38.732;-121.358;2022-07-29T05:42:11;3.75;;;2.35;;
49784;SDS011;35679;38.732;-121.358;2022-07-29T05:45:01;2.30;;;2.10;;
49784;SDS011;35679;38.732;-121.358;2022-07-29T05:47:51;3.80;;;2.22;;
49784;SDS011;35679;38.732;-121.358;2022-07-29T05:50:40;3.55;;;2.33;;
49784;SDS011;35679;38.732;-121.358;2022-07-29T05:53:33;2.40;;;2.05;;
49784;SDS011;35679;38.732;-121.358;2022-07-29T05:56:23;5.57;;;2.47;;
49784;SDS011;35679;38.732;-121.358;2022-07-29T05:59:13;2.67;;;2.15;;
49784;SDS011;35679;38.732;-121.358;2022-07-29T06:02:04;3.97;;;2.20;;
49784;SDS011;35679;38.732;-121.358;2022-07-29T06:04:54;2.85;;;2.30;;
49784;SDS011;35679;38.732;-121.358;2022-07-29T06:07:43;3.80;;;2.25;;
49784;SDS011;35679;38.732;-121.358;2022-07-29T06:10:38;2.17;;;2.03;;
49784;SDS011;35679;38.732;-121.358;2022-07-29T06:13:27;2.28;;;2.08;;
49784;SDS011;35679;38.732;-121.358;2022-07-29T06:16:17;2.78;;;2.58;;
49784;SDS011;35679;38.732;-121.358;2022-07-29T06:19:16;4.47;;;2.60;;
49784;SDS011;35679;38.732;-121.358;2022-07-29T06:22:06;4.53;;;2.40;;
49784;SDS011;35679;38.732;-121.358;2022-07-29T06:24:55;2.55;;;2.30;;
49784;SDS011;35679;38.732;-121.358;2022-07-29T06:27:44;3.28;;;2.22;;
49784;SDS011;35679;38.732;-121.358;2022-07-29T06:30:34;2.35;;;2.15;;
49784;SDS011;35679;38.732;-121.358;2022-07-29T06:33:23;3.08;;;2.33;;
49784;SDS011;35679;38.732;-121.358;2022-07-29T06:36:13;2.67;;;2.47;;
49784;SDS011;35679;38.732;-121.358;2022-07-29T06:39:07;4.78;;;2.42;;
49784;SDS011;35679;38.732;-121.358;2022-07-29T06:41:58;2.28;;;2.08;;
49784;SDS011;35679;38.732;-121.358;2022-07-29T06:44:48;2.67;;;2.47;;
49784;SDS011;35679;38.732;-121.358;2022-07-29T06:47:37;2.47;;;2.28;;
49784;SDS011;35679;38.732;-121.358;2022-07-29T06:50:27;3.25;;;2.60;;
49784;SDS011;35679;38.732;-121.358;2022-07-29T06:53:16;2.92;;;2.33;;
49784;SDS011;35679;38.732;-121.358;2022-07-29T06:56:06;4.40;;;2.40;;
49784;SDS011;35679;38.732;-121.358;2022-07-29T06:59:00;3.08;;;2.30;;
49784;SDS011;35679;38.732;-121.358;2022-07-29T07:01:50;2.63;;;2.42;;
49784;SDS011;35679;38.732;-121.358;2022-07-29T07:04:39;4.72;;;2.30;;
49784;SDS011;35679;38.732;-121.358;2022-07-29T07:07:28;3.08;;;2.45;;
49784;SDS011;35679;38.732;-121.358;2022-07-29T07:10:21;3.03;;;2.45;;
49784;SDS011;35679;38.732;-121.358;2022-07-29T07:13:10;2.83;;;2.22;;
49784;SDS011;35679;38.732;-121.358;2022-07-29T07:16:01;3.63;;;2.30;;
49784;SDS011;35679;38.732;-121.358;2022-07-29T07:18:50;2.63;;;2.30;;
49784;SDS011;35679;38.732;-121.358;2022-07-29T07:21:39;3.17;;;2.40;;
49784;SDS011;35679;38.732;-121.358;2022-07-29T07:24:29;2.42;;;2.17;;
49784;SDS011;35679;38.732;-121.358;2022-07-29T07:27:18;2.80;;;2.47;;
49784;SDS011;35679;38.732;-121.358;2022-07-29T07:30:07;2.45;;;2.25;;
49784;SDS011;35679;38.732;-121.358;2022-07-29T07:32:57;2.22;;;2.03;;
49784;SDS011;35679;38.732;-121.358;2022-07-29T07:35:46;3.05;;;2.17;;
49784;SDS011;35679;38.732;-121.358;2022-07-29T07:38:36;3.40;;;2.35;;
49784;SDS011;35679;38.732;-121.358;2022-07-29T07:41:25;2.85;;;2.55;;
49784;SDS011;35679;38.732;-121.358;2022-07-29T07:44:19;2.60;;;2.40;;
49784;SDS011;35679;38.732;-121.358;2022-07-29T07:47:08;2.65;;;2.38;;
49784;SDS011;35679;38.732;-121.358;2022-07-29T07:49:59;4.18;;;2.42;;
49784;SDS011;35679;38.732;-121.358;2022-07-29T07:52:49;2.58;;;2.35;;
49784;SDS011;35679;38.732;-121.358;2022-07-29T07:55:41;3.30;;;2.58;;
49784;SDS011;35679;38.732;-121.358;2022-07-29T07:58:51;2.75;;;2.53;;
49784;SDS011;35679;38.732;-121.358;2022-07-29T08:01:41;2.10;;;2.00;;
49784;SDS011;35679;38.732;-121.358;2022-07-29T08:04:42;2.50;;;2.30;;
49784;SDS011;35679;38.732;-121.358;2022-07-29T08:07:32;4.13;;;2.70;;
49784;SDS011;35679;38.732;-121.358;2022-07-29T08:10:21;3.17;;;2.50;;
49784;SDS011;35679;38.732;-121.358;2022-07-29T08:13:29;2.60;;;2.40;;
49784;SDS011;35679;38.732;-121.358;2022-07-29T08:16:20;2.40;;;2.20;;
49784;SDS011;35679;38.732;-121.358;2022-07-29T08:19:09;2.90;;;2.60;;
49784;SDS011;35679;38.732;-121.358;2022-07-29T08:21:59;3.92;;;2.40;;
49784;SDS011;35679;38.732;-121.358;2022-07-29T08:24:48;2.40;;;2.20;;
49784;SDS011;35679;38.732;-121.358;2022-07-29T08:27:48;3.58;;;2.40;;
49784;SDS011;35679;38.732;-121.358;2022-07-29T08:30:38;3.72;;;2.28;;
49784;SDS011;35679;38.732;-121.358;2022-07-29T08:33:28;2.22;;;2.13;;
49784;SDS011;35679;38.732;-121.358;2022-07-29T08:36:17;2.50;;;2.30;;
49784;SDS011;35679;38.732;-121.358;2022-07-29T08:39:09;2.75;;;2.50;;
49784;SDS011;35679;38.732;-121.358;2022-07-29T08:41:58;2.85;;;2.50;;
49784;SDS011;35679;38.732;-121.358;2022-07-29T08:44:48;2.38;;;2.17;;
49784;SDS011;35679;38.732;-121.358;2022-07-29T08:47:39;2.83;;;2.60;;
49784;SDS011;35679;38.732;-121.358;2022-07-29T08:50:28;3.20;;;2.05;;
49784;SDS011;35679;38.732;-121.358;2022-07-29T08:53:18;2.72;;;2.53;;
49784;SDS011;35679;38.732;-121.358;2022-07-29T08:56:10;2.75;;;2.40;;
49784;SDS011;35679;38.732;-121.358;2022-07-29T08:59:05;2.58;;;2.38;;
49784;SDS011;35679;38.732;-121.358;2022-07-29T09:01:59;3.20;;;2.53;;
49784;SDS011;35679;38.732;-121.358;2022-07-29T09:04:49;2.17;;;2.08;;
49784;SDS011;35679;38.732;-121.358;2022-07-29T09:07:39;3.17;;;2.33;;
49784;SDS011;35679;38.732;-121.358;2022-07-29T09:10:31;2.33;;;2.22;;
49784;SDS011;35679;38.732;-121.358;2022-07-29T09:13:21;2.58;;;2.38;;
49784;SDS011;35679;38.732;-121.358;2022-07-29T09:16:11;2.10;;;2.00;;
49784;SDS011;35679;38.732;-121.358;2022-07-29T09:22:27;2.53;;;2.33;;
49784;SDS011;35679;38.732;-121.358;2022-07-29T09:25:32;2.50;;;2.30;;
49784;SDS011;35679;38.732;-121.358;2022-07-29T09:28:22;2.00;;;1.90;;
49784;SDS011;35679;38.732;-121.358;2022-07-29T09:31:12;2.50;;;2.30;;
49784;SDS011;35679;38.732;-121.358;2022-07-29T09:34:02;2.00;;;1.90;;
49784;SDS011;35679;38.732;-121.358;2022-07-29T09:36:53;2.00;;;1.90;;
49784;SDS011;35679;38.732;-121.358;2022-07-29T09:39:44;2.10;;;2.00;;
49784;SDS011;35679;38.732;-121.358;2022-07-29T09:42:33;2.63;;;2.22;;
49784;SDS011;35679;38.732;-121.358;2022-07-29T09:45:27;2.33;;;2.15;;
49784;SDS011;35679;38.732;-121.358;2022-07-29T09:48:18;2.20;;;2.10;;
49784;SDS011;35679;38.732;-121.358;2022-07-29T09:51:19;2.22;;;2.00;;
49784;SDS011;35679;38.732;-121.358;2022-07-29T09:54:25;2.30;;;2.20;;
49784;SDS011;35679;38.732;-121.358;2022-07-29T09:57:36;2.30;;;2.10;;
49784;SDS011;35679;38.732;-121.358;2022-07-29T10:00:26;2.42;;;2.22;;
49784;SDS011;35679;38.732;-121.358;2022-07-29T10:03:17;2.45;;;2.25;;
49784;SDS011;35679;38.732;-121.358;2022-07-29T10:06:09;2.35;;;2.15;;
49784;SDS011;35679;38.732;-121.358;2022-07-29T10:09:07;2.10;;;2.00;;
49784;SDS011;35679;38.732;-121.358;2022-07-29T10:15:00;2.40;;;2.20;;
49784;SDS011;35679;38.732;-121.358;2022-07-29T10:20:42;2.10;;;2.00;;
49784;SDS011;35679;38.732;-121.358;2022-07-29T10:23:34;2.80;;;2.30;;
49784;SDS011;35679;38.732;-121.358;2022-07-29T10:26:33;2.28;;;2.15;;
49784;SDS011;35679;38.732;-121.358;2022-07-29T10:29:26;2.10;;;2.00;;
49784;SDS011;35679;38.732;-121.358;2022-07-29T10:35:20;2.20;;;2.10;;
49784;SDS011;35679;38.732;-121.358;2022-07-29T10:44:44;2.53;;;2.33;;
49784;SDS011;35679;38.732;-121.358;2022-07-29T10:47:35;2.22;;;2.13;;
49784;SDS011;35679;38.732;-121.358;2022-07-29T10:50:27;2.70;;;2.25;;
49784;SDS011;35679;38.732;-121.358;2022-07-29T10:53:18;2.50;;;2.30;;
49784;SDS011;35679;38.732;-121.358;2022-07-29T10:56:22;2.83;;;2.20;;
49784;SDS011;35679;38.732;-121.358;2022-07-29T11:06:10;2.05;;;1.95;;
49784;SDS011;35679;38.732;-121.358;2022-07-29T11:09:17;2.10;;;1.90;;
49784;SDS011;35679;38.732;-121.358;2022-07-29T11:15:26;2.53;;;2.35;;
49784;SDS011;35679;38.732;-121.358;2022-07-29T11:21:07;2.60;;;2.05;;
49784;SDS011;35679;38.732;-121.358;2022-07-29T11:24:45;2.08;;;1.98;;
49784;SDS011;35679;38.732;-121.358;2022-07-29T11:28:17;2.58;;;1.88;;
49784;SDS011;35679;38.732;-121.358;2022-07-29T11:31:11;2.08;;;1.90;;
49784;SDS011;35679;38.732;-121.358;2022-07-29T11:37:29;2.55;;;1.95;;
49784;SDS011;35679;38.732;-121.358;2022-07-29T11:40:28;2.50;;;2.30;;
49784;SDS011;35679;38.732;-121.358;2022-07-29T11:43:45;2.22;;;2.10;;
49784;SDS011;35679;38.732;-121.358;2022-07-29T11:46:50;2.22;;;2.13;;
49784;SDS011;35679;38.732;-121.358;2022-07-29T11:49:40;4.00;;;2.40;;
49784;SDS011;35679;38.732;-121.358;2022-07-29T11:52:36;2.38;;;2.17;;
49784;SDS011;35679;38.732;-121.358;2022-07-29T11:55:55;2.95;;;2.17;;
49784;SDS011;35679;38.732;-121.358;2022-07-29T11:58:45;2.40;;;2.20;;
49784;SDS011;35679;38.732;-121.358;2022-07-29T12:01:35;3.83;;;2.30;;
49784;SDS011;35679;38.732;-121.358;2022-07-29T12:04:25;2.83;;;2.47;;
49784;SDS011;35679;38.732;-121.358;2022-07-29T12:07:18;2.30;;;2.20;;
49784;SDS011;35679;38.732;-121.358;2022-07-29T12:10:21;2.75;;;2.33;;
49784;SDS011;35679;38.732;-121.358;2022-07-29T12:13:20;2.30;;;2.20;;
49784;SDS011;35679;38.732;-121.358;2022-07-29T12:16:23;2.63;;;2.42;;
49784;SDS011;35679;38.732;-121.358;2022-07-29T12:19:27;2.53;;;2.33;;
49784;SDS011;35679;38.732;-121.358;2022-07-29T12:22:24;2.85;;;2.28;;
49784;SDS011;35679;38.732;-121.358;2022-07-29T12:25:14;2.10;;;2.00;;
49784;SDS011;35679;38.732;-121.358;2022-07-29T12:28:21;2.47;;;2.10;;
49784;SDS011;35679;38.732;-121.358;2022-07-29T12:31:14;2.40;;;2.20;;
49784;SDS011;35679;38.732;-121.358;2022-07-29T12:34:25;2.10;;;2.00;;
49784;SDS011;35679;38.732;-121.358;2022-07-29T12:37:17;2.33;;;2.17;;
49784;SDS011;35679;38.732;-121.358;2022-07-29T12:40:26;2.35;;;2.25;;
49784;SDS011;35679;38.732;-121.358;2022-07-29T12:43:20;2.15;;;2.05;;
49784;SDS011;35679;38.732;-121.358;2022-07-29T12:46:11;2.33;;;2.22;;
49784;SDS011;35679;38.732;-121.358;2022-07-29T12:49:03;2.75;;;2.55;;
49784;SDS011;35679;38.732;-121.358;2022-07-29T12:51:53;2.55;;;2.35;;
49784;SDS011;35679;38.732;-121.358;2022-07-29T12:54:49;2.25;;;2.03;;
49784;SDS011;35679;38.732;-121.358;2022-07-29T12:57:48;2.10;;;2.00;;
49784;SDS011;35679;38.732;-121.358;2022-07-29T13:00:41;2.20;;;2.10;;
49784;SDS011;35679;38.732;-121.358;2022-07-29T13:03:52;2.40;;;2.22;;
49784;SDS011;35679;38.732;-121.358;2022-07-29T13:06:48;2.20;;;2.10;;
49784;SDS011;35679;38.732;-121.358;2022-07-29T13:09:50;2.60;;;2.50;;
49784;SDS011;35679;38.732;-121.358;2022-07-29T13:16:06;2.58;;;2.38;;
49784;SDS011;35679;38.732;-121.358;2022-07-29T13:19:31;2.50;;;2.30;;
49784;SDS011;35679;38.732;-121.358;2022-07-29T13:22:22;2.30;;;2.20;;
49784;SDS011;35679;38.732;-121.358;2022-07-29T13:25:13;3.75;;;2.60;;
49784;SDS011;35679;38.732;-121.358;2022-07-29T13:28:02;2.85;;;2.53;;
49784;SDS011;35679;38.732;-121.358;2022-07-29T13:30:52;2.42;;;2.28;;
49784;SDS011;35679;38.732;-121.358;2022-07-29T13:33:41;2.90;;;2.10;;
49784;SDS011;35679;38.732;-121.358;2022-07-29T13:36:30;3.53;;;2.15;;
49784;SDS011;35679;38.732;-121.358;2022-07-29T13:39:20;2.47;;;2.30;;
49784;SDS011;35679;38.732;-121.358;2022-07-29T13:42:09;2.22;;;2.13;;
49784;SDS011;35679;38.732;-121.358;2022-07-29T13:45:01;2.10;;;2.00;;
49784;SDS011;35679;38.732;-121.358;2022-07-29T13:47:51;4.03;;;2.50;;
49784;SDS011;35679;38.732;-121.358;2022-07-29T13:50:41;2.63;;;2.42;;
49784;SDS011;35679;38.732;-121.358;2022-07-29T13:53:30;2.08;;;1.98;;
49784;SDS011;35679;38.732;-121.358;2022-07-29T13:56:20;5.30;;;2.45;;
49784;SDS011;35679;38.732;-121.358;2022-07-29T13:59:10;6.55;;;2.72;;
49784;SDS011;35679;38.732;-121.358;2022-07-29T14:01:59;2.55;;;2.13;;
49784;SDS011;35679;38.732;-121.358;2022-07-29T14:04:48;2.90;;;2.58;;
49784;SDS011;35679;38.732;-121.358;2022-07-29T14:07:38;3.70;;;2.78;;
49784;SDS011;35679;38.732;-121.358;2022-07-29T14:10:27;2.72;;;2.53;;
49784;SDS011;35679;38.732;-121.358;2022-07-29T14:13:16;2.65;;;2.45;;
49784;SDS011;35679;38.732;-121.358;2022-07-29T14:16:12;4.15;;;2.33;;
49784;SDS011;35679;38.732;-121.358;2022-07-29T14:19:02;3.47;;;2.40;;
49784;SDS011;35679;38.732;-121.358;2022-07-29T14:21:53;4.93;;;2.80;;
49784;SDS011;35679;38.732;-121.358;2022-07-29T14:24:44;2.40;;;2.20;;
49784;SDS011;35679;38.732;-121.358;2022-07-29T14:27:34;2.47;;;2.30;;
49784;SDS011;35679;38.732;-121.358;2022-07-29T14:30:24;2.50;;;2.30;;
49784;SDS011;35679;38.732;-121.358;2022-07-29T14:33:14;2.50;;;2.30;;
49784;SDS011;35679;38.732;-121.358;2022-07-29T14:36:03;2.47;;;2.28;;
49784;SDS011;35679;38.732;-121.358;2022-07-29T14:38:54;2.38;;;2.20;;
49784;SDS011;35679;38.732;-121.358;2022-07-29T14:41:44;2.60;;;2.40;;
49784;SDS011;35679;38.732;-121.358;2022-07-29T14:44:34;2.97;;;2.10;;
49784;SDS011;35679;38.732;-121.358;2022-07-29T14:47:24;2.40;;;2.20;;
49784;SDS011;35679;38.732;-121.358;2022-07-29T14:50:13;2.30;;;2.20;;
49784;SDS011;35679;38.732;-121.358;2022-07-29T14:53:09;2.20;;;2.10;;
49784;SDS011;35679;38.732;-121.358;2022-07-29T14:56:00;2.67;;;2.45;;
49784;SDS011;35679;38.732;-121.358;2022-07-29T14:59:09;2.60;;;2.42;;
49784;SDS011;35679;38.732;-121.358;2022-07-29T15:01:59;2.25;;;2.15;;
49784;SDS011;35679;38.732;-121.358;2022-07-29T15:04:49;2.60;;;2.40;;
49784;SDS011;35679;38.732;-121.358;2022-07-29T15:07:38;2.55;;;2.35;;
49784;SDS011;35679;38.732;-121.358;2022-07-29T15:10:27;2.90;;;2.15;;
49784;SDS011;35679;38.732;-121.358;2022-07-29T15:13:17;3.58;;;2.33;;
49784;SDS011;35679;38.732;-121.358;2022-07-29T15:16:06;2.60;;;2.40;;
49784;SDS011;35679;38.732;-121.358;2022-07-29T15:18:57;3.42;;;2.53;;
49784;SDS011;35679;38.732;-121.358;2022-07-29T15:21:47;3.13;;;2.50;;
49784;SDS011;35679;38.732;-121.358;2022-07-29T15:24:37;3.58;;;2.53;;
49784;SDS011;35679;38.732;-121.358;2022-07-29T15:27:26;5.35;;;2.60;;
49784;SDS011;35679;38.732;-121.358;2022-07-29T15:30:16;2.70;;;2.50;;
49784;SDS011;35679;38.732;-121.358;2022-07-29T15:33:20;4.05;;;2.50;;
49784;SDS011;35679;38.732;-121.358;2022-07-29T15:36:09;2.30;;;2.20;;
49784;SDS011;35679;38.732;-121.358;2022-07-29T15:39:20;2.70;;;2.50;;
49784;SDS011;35679;38.732;-121.358;2022-07-29T15:42:10;3.53;;;2.58;;
49784;SDS011;35679;38.732;-121.358;2022-07-29T15:44:59;2.65;;;2.45;;
49784;SDS011;35679;38.732;-121.358;2022-07-29T15:47:51;2.70;;;2.50;;
49784;SDS011;35679;38.732;-121.358;2022-07-29T15:50:40;3.10;;;2.65;;
49784;SDS011;35679;38.732;-121.358;2022-07-29T15:53:33;3.47;;;2.70;;
49784;SDS011;35679;38.732;-121.358;2022-07-29T15:56:23;3.22;;;2.70;;
49784;SDS011;35679;38.732;-121.358;2022-07-29T15:59:12;2.70;;;2.50;;
49784;SDS011;35679;38.732;-121.358;2022-07-29T16:02:09;7.47;;;2.60;;
49784;SDS011;35679;38.732;-121.358;2022-07-29T16:04:59;3.22;;;2.58;;
49784;SDS011;35679;38.732;-121.358;2022-07-29T16:07:49;3.97;;;2.50;;
49784;SDS011;35679;38.732;-121.358;2022-07-29T16:10:38;3.03;;;2.63;;
49784;SDS011;35679;38.732;-121.358;2022-07-29T16:13:28;5.30;;;2.70;;
49784;SDS011;35679;38.732;-121.358;2022-07-29T16:16:17;8.38;;;2.55;;
49784;SDS011;35679;38.732;-121.358;2022-07-29T16:19:07;7.07;;;2.40;;
49784;SDS011;35679;38.732;-121.358;2022-07-29T16:21:57;7.57;;;2.70;;
49784;SDS011;35679;38.732;-121.358;2022-07-29T16:24:47;2.72;;;2.50;;
49784;SDS011;35679;38.732;-121.358;2022-07-29T16:27:37;3.58;;;2.53;;
49784;SDS011;35679;38.732;-121.358;2022-07-29T16:30:26;3.28;;;2.35;;
49784;SDS011;35679;38.732;-121.358;2022-07-29T16:33:16;4.13;;;2.63;;
49784;SDS011;35679;38.732;-121.358;2022-07-29T16:36:05;4.60;;;2.40;;
49784;SDS011;35679;38.732;-121.358;2022-07-29T16:38:59;5.30;;;2.30;;
49784;SDS011;35679;38.732;-121.358;2022-07-29T16:41:48;4.88;;;2.65;;
49784;SDS011;35679;38.732;-121.358;2022-07-29T16:44:38;6.00;;;2.53;;
49784;SDS011;35679;38.732;-121.358;2022-07-29T16:47:27;7.30;;;2.40;;
49784;SDS011;35679;38.732;-121.358;2022-07-29T16:50:20;5.25;;;2.80;;
49784;SDS011;35679;38.732;-121.358;2022-07-29T16:53:10;5.63;;;2.70;;
49784;SDS011;35679;38.732;-121.358;2022-07-29T16:56:00;5.80;;;2.80;;
49784;SDS011;35679;38.732;-121.358;2022-07-29T16:58:49;7.22;;;2.88;;
49784;SDS011;35679;38.732;-121.358;2022-07-29T17:01:39;6.30;;;2.50;;
49784;SDS011;35679;38.732;-121.358;2022-07-29T17:04:28;9.48;;;3.17;;
49784;SDS011;35679;38.732;-121.358;2022-07-29T17:07:18;4.38;;;2.60;;
49784;SDS011;35679;38.732;-121.358;2022-07-29T17:10:07;8.90;;;2.75;;
49784;SDS011;35679;38.732;-121.358;2022-07-29T17:12:57;3.72;;;2.38;;
49784;SDS011;35679;38.732;-121.358;2022-07-29T17:15:47;6.60;;;2.78;;
49784;SDS011;35679;38.732;-121.358;2022-07-29T17:18:36;4.55;;;2.58;;
49784;SDS011;35679;38.732;-121.358;2022-07-29T17:21:25;3.70;;;2.70;;
49784;SDS011;35679;38.732;-121.358;2022-07-29T17:24:15;5.13;;;2.45;;
49784;SDS011;35679;38.732;-121.358;2022-07-29T17:27:05;9.85;;;2.63;;
49784;SDS011;35679;38.732;-121.358;2022-07-29T17:29:55;4.53;;;2.60;;